Berkeley Township, New Jersey
Current Conditions -  °F | °C
As of 10:55 AM on Friday 28 Nov 2014 (Local Time) from KMJX Reporting Station
Overcast Overcast  
Wind Chill: 30°   Ceiling: 3300
Heat Index: 36°   Visibility: 10mi
Dew Point: 23°   Wind: 7mph
Humidity: 60%   Direction: 330°NNW
Pressure: 30.2"   Gusts: NA
Location:  39.9559°N, 74.2574°W
Report Text: KMJX 281555Z AUTO 33006KT 10SM BKN033 OVC039 02/M05 A3020 RMK AO1
Loading
Personal Weather Stations






























Interactive Weather Map New forecast layout! Learn more

10-Day Weather Forecast

Advertisements
Track Severe Weather on mobile